sensor_id;sensor_type;location;lat;lon;timestamp;pressure;altitude;pressure_sealevel;temperature;humidity
16834;BME280;8533;48.426;10.868;2022-12-18T00:01:35;97230.72;;;-6.46;100.00
16834;BME280;8533;48.426;10.868;2022-12-18T00:04:04;97239.63;;;-6.46;100.00
16834;BME280;8533;48.426;10.868;2022-12-18T00:06:32;97243.23;;;-6.43;100.00
16834;BME280;8533;48.426;10.868;2022-12-18T00:09:01;97240.47;;;-6.40;100.00
16834;BME280;8533;48.426;10.868;2022-12-18T00:11:30;97244.05;;;-6.37;100.00
16834;BME280;8533;48.426;10.868;2022-12-18T00:13:59;97237.01;;;-6.34;100.00
16834;BME280;8533;48.426;10.868;2022-12-18T00:16:29;97239.20;;;-6.35;100.00
16834;BME280;8533;48.426;10.868;2022-12-18T00:18:59;97231.56;;;-6.29;100.00
16834;BME280;8533;48.426;10.868;2022-12-18T00:21:28;97234.36;;;-6.32;100.00
16834;BME280;8533;48.426;10.868;2022-12-18T00:23:56;97239.09;;;-6.28;100.00
16834;BME280;8533;48.426;10.868;2022-12-18T00:26:26;97241.42;;;-6.25;100.00
16834;BME280;8533;48.426;10.868;2022-12-18T00:28:57;97239.69;;;-6.19;100.00
16834;BME280;8533;48.426;10.868;2022-12-18T00:31:25;97246.73;;;-6.22;100.00
16834;BME280;8533;48.426;10.868;2022-12-18T00:33:57;97248.48;;;-6.17;100.00
16834;BME280;8533;48.426;10.868;2022-12-18T00:36:28;97254.50;;;-6.12;100.00
16834;BME280;8533;48.426;10.868;2022-12-18T00:38:57;97261.56;;;-6.16;100.00
16834;BME280;8533;48.426;10.868;2022-12-18T00:41:25;97252.41;;;-6.19;100.00
16834;BME280;8533;48.426;10.868;2022-12-18T00:44:13;97256.45;;;-6.22;100.00
16834;BME280;8533;48.426;10.868;2022-12-18T00:46:41;97259.59;;;-6.12;100.00
16834;BME280;8533;48.426;10.868;2022-12-18T00:49:09;97260.64;;;-6.09;100.00
16834;BME280;8533;48.426;10.868;2022-12-18T00:51:37;97264.36;;;-6.08;100.00
16834;BME280;8533;48.426;10.868;2022-12-18T00:54:04;97266.30;;;-6.11;100.00
16834;BME280;8533;48.426;10.868;2022-12-18T00:56:32;97268.17;;;-6.08;100.00
16834;BME280;8533;48.426;10.868;2022-12-18T00:58:59;97272.09;;;-6.04;100.00
16834;BME280;8533;48.426;10.868;2022-12-18T01:01:27;97271.15;;;-6.14;100.00
16834;BME280;8533;48.426;10.868;2022-12-18T01:03:54;97275.22;;;-6.17;100.00
16834;BME280;8533;48.426;10.868;2022-12-18T01:06:21;97275.32;;;-6.13;100.00
16834;BME280;8533;48.426;10.868;2022-12-18T01:08:49;97280.41;;;-6.19;100.00
16834;BME280;8533;48.426;10.868;2022-12-18T01:11:19;97276.70;;;-6.20;100.00
16834;BME280;8533;48.426;10.868;2022-12-18T01:13:47;97278.89;;;-6.16;100.00
16834;BME280;8533;48.426;10.868;2022-12-18T01:16:16;97280.06;;;-6.25;100.00
16834;BME280;8533;48.426;10.868;2022-12-18T01:18:45;97280.63;;;-6.27;100.00
16834;BME280;8533;48.426;10.868;2022-12-18T01:21:15;97281.80;;;-6.26;100.00
16834;BME280;8533;48.426;10.868;2022-12-18T01:23:43;97280.27;;;-6.28;100.00
16834;BME280;8533;48.426;10.868;2022-12-18T01:26:14;97277.38;;;-6.29;100.00
16834;BME280;8533;48.426;10.868;2022-12-18T01:28:42;97286.73;;;-6.35;100.00
16834;BME280;8533;48.426;10.868;2022-12-18T01:31:20;97288.47;;;-6.36;100.00
16834;BME280;8533;48.426;10.868;2022-12-18T01:33:47;97287.31;;;-6.32;100.00
16834;BME280;8533;48.426;10.868;2022-12-18T01:36:20;97293.66;;;-6.37;100.00
16834;BME280;8533;48.426;10.868;2022-12-18T01:38:48;97301.39;;;-6.44;100.00
16834;BME280;8533;48.426;10.868;2022-12-18T01:41:19;97300.27;;;-6.40;100.00
16834;BME280;8533;48.426;10.868;2022-12-18T01:43:54;97304.40;;;-6.45;100.00
16834;BME280;8533;48.426;10.868;2022-12-18T01:46:23;97307.41;;;-6.45;100.00
16834;BME280;8533;48.426;10.868;2022-12-18T01:48:53;97301.39;;;-6.44;100.00
16834;BME280;8533;48.426;10.868;2022-12-18T01:51:21;97301.95;;;-6.46;100.00
16834;BME280;8533;48.426;10.868;2022-12-18T01:53:49;97295.37;;;-6.49;100.00
16834;BME280;8533;48.426;10.868;2022-12-18T01:56:19;97292.38;;;-6.48;100.00
16834;BME280;8533;48.426;10.868;2022-12-18T01:58:51;97307.66;;;-6.43;100.00
16834;BME280;8533;48.426;10.868;2022-12-18T02:01:18;97297.07;;;-6.55;100.00
16834;BME280;8533;48.426;10.868;2022-12-18T02:03:47;97293.05;;;-6.46;100.00
16834;BME280;8533;48.426;10.868;2022-12-18T02:06:20;97292.45;;;-6.56;100.00
16834;BME280;8533;48.426;10.868;2022-12-18T02:11:51;97299.77;;;-6.51;100.00
16834;BME280;8533;48.426;10.868;2022-12-18T02:17:16;97297.20;;;-6.57;100.00
16834;BME280;8533;48.426;10.868;2022-12-18T02:20:01;97292.68;;;-6.59;100.00
16834;BME280;8533;48.426;10.868;2022-12-18T02:22:50;97289.34;;;-6.53;100.00
16834;BME280;8533;48.426;10.868;2022-12-18T02:25:38;97288.16;;;-6.61;100.00
16834;BME280;8533;48.426;10.868;2022-12-18T02:28:03;97294.05;;;-6.66;100.00
16834;BME280;8533;48.426;10.868;2022-12-18T02:30:33;97303.62;;;-6.69;100.00
16834;BME280;8533;48.426;10.868;2022-12-18T02:33:04;97301.72;;;-6.78;100.00
16834;BME280;8533;48.426;10.868;2022-12-18T02:35:33;97298.97;;;-6.75;100.00
16834;BME280;8533;48.426;10.868;2022-12-18T02:38:03;97299.18;;;-6.78;100.00
16834;BME280;8533;48.426;10.868;2022-12-18T02:40:31;97306.50;;;-6.74;100.00
16834;BME280;8533;48.426;10.868;2022-12-18T02:43:13;97310.67;;;-6.73;100.00
16834;BME280;8533;48.426;10.868;2022-12-18T02:45:48;97310.31;;;-6.74;100.00
16834;BME280;8533;48.426;10.868;2022-12-18T02:48:17;97313.21;;;-6.73;100.00
16834;BME280;8533;48.426;10.868;2022-12-18T02:51:14;97307.77;;;-6.74;100.00
16834;BME280;8533;48.426;10.868;2022-12-18T02:53:45;97304.78;;;-6.68;100.00
16834;BME280;8533;48.426;10.868;2022-12-18T02:58:59;97303.04;;;-6.73;100.00
16834;BME280;8533;48.426;10.868;2022-12-18T03:04:16;97305.23;;;-6.74;100.00
16834;BME280;8533;48.426;10.868;2022-12-18T03:06:49;97299.91;;;-6.71;100.00
16834;BME280;8533;48.426;10.868;2022-12-18T03:09:19;97296.44;;;-6.70;100.00
16834;BME280;8533;48.426;10.868;2022-12-18T03:11:51;97297.00;;;-6.72;100.00
16834;BME280;8533;48.426;10.868;2022-12-18T03:14:37;97289.61;;;-6.75;100.00
16834;BME280;8533;48.426;10.868;2022-12-18T03:17:07;97300.41;;;-6.66;100.00
16834;BME280;8533;48.426;10.868;2022-12-18T03:19:36;97307.22;;;-6.66;100.00
16834;BME280;8533;48.426;10.868;2022-12-18T03:22:07;97304.53;;;-6.70;100.00
16834;BME280;8533;48.426;10.868;2022-12-18T03:24:35;97313.58;;;-6.66;100.00
16834;BME280;8533;48.426;10.868;2022-12-18T03:27:08;97322.14;;;-6.62;100.00
16834;BME280;8533;48.426;10.868;2022-12-18T03:29:41;97324.33;;;-6.63;100.00
16834;BME280;8533;48.426;10.868;2022-12-18T03:32:12;97319.59;;;-6.62;100.00
16834;BME280;8533;48.426;10.868;2022-12-18T03:34:41;97313.13;;;-6.66;100.00
16834;BME280;8533;48.426;10.868;2022-12-18T03:37:09;97303.41;;;-6.66;100.00
16834;BME280;8533;48.426;10.868;2022-12-18T03:39:37;97312.41;;;-6.68;100.00
16834;BME280;8533;48.426;10.868;2022-12-18T03:45:18;97312.77;;;-6.67;100.00
16834;BME280;8533;48.426;10.868;2022-12-18T03:47:45;97318.68;;;-6.61;100.00
16834;BME280;8533;48.426;10.868;2022-12-18T03:50:19;97327.23;;;-6.62;100.00
16834;BME280;8533;48.426;10.868;2022-12-18T03:52:48;97332.87;;;-6.64;100.00
16834;BME280;8533;48.426;10.868;2022-12-18T03:55:16;97325.25;;;-6.64;100.00
16834;BME280;8533;48.426;10.868;2022-12-18T03:57:45;97323.41;;;-6.62;100.00
16834;BME280;8533;48.426;10.868;2022-12-18T04:00:15;97317.30;;;-6.65;100.00
16834;BME280;8533;48.426;10.868;2022-12-18T04:02:48;97312.93;;;-6.57;100.00
16834;BME280;8533;48.426;10.868;2022-12-18T04:05:16;97310.03;;;-6.58;100.00
16834;BME280;8533;48.426;10.868;2022-12-18T04:07:46;97310.70;;;-6.56;100.00
16834;BME280;8533;48.426;10.868;2022-12-18T04:10:15;97315.02;;;-6.57;100.00
16834;BME280;8533;48.426;10.868;2022-12-18T04:12:43;97321.50;;;-6.47;100.00
16834;BME280;8533;48.426;10.868;2022-12-18T04:15:11;97315.12;;;-6.52;100.00
16834;BME280;8533;48.426;10.868;2022-12-18T04:17:43;97318.13;;;-6.53;100.00
16834;BME280;8533;48.426;10.868;2022-12-18T04:20:09;97313.65;;;-6.49;100.00
16834;BME280;8533;48.426;10.868;2022-12-18T04:22:37;97308.78;;;-6.47;100.00
16834;BME280;8533;48.426;10.868;2022-12-18T04:25:05;97313.75;;;-6.51;100.00
16834;BME280;8533;48.426;10.868;2022-12-18T04:27:32;97326.94;;;-6.46;100.00
16834;BME280;8533;48.426;10.868;2022-12-18T04:30:00;97325.00;;;-6.42;100.00
16834;BME280;8533;48.426;10.868;2022-12-18T04:32:27;97326.63;;;-6.41;100.00
16834;BME280;8533;48.426;10.868;2022-12-18T04:34:54;97325.36;;;-6.41;100.00
16834;BME280;8533;48.426;10.868;2022-12-18T04:37:22;97328.47;;;-6.43;100.00
16834;BME280;8533;48.426;10.868;2022-12-18T04:39:49;97334.48;;;-6.39;100.00
16834;BME280;8533;48.426;10.868;2022-12-18T04:42:17;97340.63;;;-6.41;100.00
16834;BME280;8533;48.426;10.868;2022-12-18T04:44:44;97343.84;;;-6.39;100.00
16834;BME280;8533;48.426;10.868;2022-12-18T04:47:12;97351.82;;;-6.44;100.00
16834;BME280;8533;48.426;10.868;2022-12-18T04:49:39;97344.09;;;-6.42;100.00
16834;BME280;8533;48.426;10.868;2022-12-18T04:52:06;97358.66;;;-6.39;100.00
16834;BME280;8533;48.426;10.868;2022-12-18T04:54:34;97358.08;;;-6.42;100.00
16834;BME280;8533;48.426;10.868;2022-12-18T04:57:01;97357.37;;;-6.44;100.00
16834;BME280;8533;48.426;10.868;2022-12-18T04:59:29;97352.17;;;-6.43;100.00
16834;BME280;8533;48.426;10.868;2022-12-18T05:01:56;97350.80;;;-6.41;100.00
16834;BME280;8533;48.426;10.868;2022-12-18T05:04:24;97355.66;;;-6.38;100.00
16834;BME280;8533;48.426;10.868;2022-12-18T05:06:51;97349.73;;;-6.44;100.00
16834;BME280;8533;48.426;10.868;2022-12-18T05:09:18;97357.52;;;-6.40;100.00
16834;BME280;8533;48.426;10.868;2022-12-18T05:11:46;97360.12;;;-6.47;100.00
16834;BME280;8533;48.426;10.868;2022-12-18T05:14:13;97353.29;;;-6.52;100.00
16834;BME280;8533;48.426;10.868;2022-12-18T05:16:41;97355.27;;;-6.50;100.00
16834;BME280;8533;48.426;10.868;2022-12-18T05:19:08;97355.73;;;-6.51;100.00
16834;BME280;8533;48.426;10.868;2022-12-18T05:21:36;97352.64;;;-6.43;100.00
16834;BME280;8533;48.426;10.868;2022-12-18T05:24:03;97349.73;;;-6.44;100.00
16834;BME280;8533;48.426;10.868;2022-12-18T05:26:31;97356.56;;;-6.39;100.00
16834;BME280;8533;48.426;10.868;2022-12-18T05:28:58;97364.81;;;-6.36;100.00
16834;BME280;8533;48.426;10.868;2022-12-18T05:31:25;97367.80;;;-6.42;100.00
16834;BME280;8533;48.426;10.868;2022-12-18T05:33:53;97369.53;;;-6.42;100.00
16834;BME280;8533;48.426;10.868;2022-12-18T05:36:20;97372.03;;;-6.48;100.00
16834;BME280;8533;48.426;10.868;2022-12-18T05:38:48;97369.37;;;-6.52;100.00
16834;BME280;8533;48.426;10.868;2022-12-18T05:41:16;97371.36;;;-6.44;100.00
16834;BME280;8533;48.426;10.868;2022-12-18T05:43:44;97363.61;;;-6.48;100.00
16834;BME280;8533;48.426;10.868;2022-12-18T05:46:16;97360.48;;;-6.46;100.00
16834;BME280;8533;48.426;10.868;2022-12-18T05:48:46;97356.55;;;-6.50;100.00
16834;BME280;8533;48.426;10.868;2022-12-18T05:51:16;97350.08;;;-6.49;100.00
16834;BME280;8533;48.426;10.868;2022-12-18T05:53:45;97356.45;;;-6.43;100.00
16834;BME280;8533;48.426;10.868;2022-12-18T05:56:15;97358.29;;;-6.45;100.00
16834;BME280;8533;48.426;10.868;2022-12-18T05:58:46;97361.64;;;-6.45;100.00
16834;BME280;8533;48.426;10.868;2022-12-18T06:01:17;97372.73;;;-6.46;100.00
16834;BME280;8533;48.426;10.868;2022-12-18T06:03:45;97375.19;;;-6.39;100.00
16834;BME280;8533;48.426;10.868;2022-12-18T06:06:15;97375.33;;;-6.40;100.00
16834;BME280;8533;48.426;10.868;2022-12-18T06:08:43;97379.35;;;-6.43;100.00
16834;BME280;8533;48.426;10.868;2022-12-18T06:11:10;97376.89;;;-6.50;100.00
16834;BME280;8533;48.426;10.868;2022-12-18T06:13:38;97388.70;;;-6.49;100.00
16834;BME280;8533;48.426;10.868;2022-12-18T06:16:06;97391.11;;;-6.48;100.00
16834;BME280;8533;48.426;10.868;2022-12-18T06:18:34;97398.44;;;-6.43;100.00
16834;BME280;8533;48.426;10.868;2022-12-18T06:21:02;97388.00;;;-6.46;100.00
16834;BME280;8533;48.426;10.868;2022-12-18T06:23:29;97390.45;;;-6.44;100.00
16834;BME280;8533;48.426;10.868;2022-12-18T06:25:56;97390.78;;;-6.49;100.00
16834;BME280;8533;48.426;10.868;2022-12-18T06:28:24;97386.63;;;-6.44;100.00
16834;BME280;8533;48.426;10.868;2022-12-18T06:30:51;97391.05;;;-6.41;100.00
16834;BME280;8533;48.426;10.868;2022-12-18T06:33:19;97406.78;;;-6.41;100.00
16834;BME280;8533;48.426;10.868;2022-12-18T06:35:46;97413.14;;;-6.41;100.00
16834;BME280;8533;48.426;10.868;2022-12-18T06:38:14;97410.95;;;-6.40;100.00
16834;BME280;8533;48.426;10.868;2022-12-18T06:40:43;97411.87;;;-6.41;100.00
16834;BME280;8533;48.426;10.868;2022-12-18T06:43:10;97408.41;;;-6.40;100.00
16834;BME280;8533;48.426;10.868;2022-12-18T06:45:38;97405.06;;;-6.35;100.00
16834;BME280;8533;48.426;10.868;2022-12-18T06:48:05;97401.25;;;-6.35;100.00
16834;BME280;8533;48.426;10.868;2022-12-18T06:50:33;97397.55;;;-6.31;100.00
16834;BME280;8533;48.426;10.868;2022-12-18T06:53:00;97400.69;;;-6.33;100.00
16834;BME280;8533;48.426;10.868;2022-12-18T06:55:28;97401.95;;;-6.33;100.00
16834;BME280;8533;48.426;10.868;2022-12-18T06:57:55;97408.19;;;-6.32;100.00
16834;BME280;8533;48.426;10.868;2022-12-18T07:00:23;97410.98;;;-6.29;100.00
16834;BME280;8533;48.426;10.868;2022-12-18T07:02:51;97415.61;;;-6.29;100.00
16834;BME280;8533;48.426;10.868;2022-12-18T07:05:18;97424.42;;;-6.27;100.00
16834;BME280;8533;48.426;10.868;2022-12-18T07:07:46;97429.87;;;-6.26;100.00
16834;BME280;8533;48.426;10.868;2022-12-18T07:10:13;97424.06;;;-6.28;100.00
16834;BME280;8533;48.426;10.868;2022-12-18T07:12:40;97419.13;;;-6.24;100.00
16834;BME280;8533;48.426;10.868;2022-12-18T07:15:08;97419.95;;;-6.18;100.00
16834;BME280;8533;48.426;10.868;2022-12-18T07:17:36;97423.66;;;-6.17;100.00
16834;BME280;8533;48.426;10.868;2022-12-18T07:20:03;97414.98;;;-6.14;100.00
16834;BME280;8533;48.426;10.868;2022-12-18T07:22:31;97421.22;;;-6.18;100.00
16834;BME280;8533;48.426;10.868;2022-12-18T07:24:59;97420.66;;;-6.16;100.00
16834;BME280;8533;48.426;10.868;2022-12-18T07:27:26;97422.86;;;-6.11;100.00
16834;BME280;8533;48.426;10.868;2022-12-18T07:29:53;97424.80;;;-6.15;100.00
16834;BME280;8533;48.426;10.868;2022-12-18T07:32:21;97417.24;;;-6.28;100.00
16834;BME280;8533;48.426;10.868;2022-12-18T07:34:48;97442.63;;;-6.15;100.00
16834;BME280;8533;48.426;10.868;2022-12-18T07:37:16;97439.81;;;-6.23;100.00
16834;BME280;8533;48.426;10.868;2022-12-18T07:39:43;97436.04;;;-6.18;100.00
16834;BME280;8533;48.426;10.868;2022-12-18T07:42:11;97438.59;;;-6.12;100.00
16834;BME280;8533;48.426;10.868;2022-12-18T07:44:58;97446.12;;;-6.16;100.00
16834;BME280;8533;48.426;10.868;2022-12-18T07:47:26;97443.94;;;-6.09;100.00
16834;BME280;8533;48.426;10.868;2022-12-18T07:49:54;97446.04;;;-6.03;100.00
16834;BME280;8533;48.426;10.868;2022-12-18T07:52:22;97451.38;;;-6.01;100.00
16834;BME280;8533;48.426;10.868;2022-12-18T07:54:51;97452.97;;;-6.05;100.00
16834;BME280;8533;48.426;10.868;2022-12-18T07:57:19;97451.23;;;-6.05;100.00
16834;BME280;8533;48.426;10.868;2022-12-18T07:59:46;97463.41;;;-6.03;100.00
16834;BME280;8533;48.426;10.868;2022-12-18T08:02:14;97458.33;;;-5.97;100.00
16834;BME280;8533;48.426;10.868;2022-12-18T08:04:41;97457.52;;;-5.98;100.00
16834;BME280;8533;48.426;10.868;2022-12-18T08:07:11;97465.31;;;-5.88;100.00
16834;BME280;8533;48.426;10.868;2022-12-18T08:09:39;97463.58;;;-5.88;100.00
16834;BME280;8533;48.426;10.868;2022-12-18T08:12:06;97470.73;;;-5.87;100.00
16834;BME280;8533;48.426;10.868;2022-12-18T08:14:34;97475.36;;;-5.87;100.00
16834;BME280;8533;48.426;10.868;2022-12-18T08:17:01;97478.97;;;-5.84;100.00
16834;BME280;8533;48.426;10.868;2022-12-18T08:19:29;97478.27;;;-5.80;100.00
16834;BME280;8533;48.426;10.868;2022-12-18T08:21:56;97481.54;;;-5.72;100.00
16834;BME280;8533;48.426;10.868;2022-12-18T08:24:24;97474.96;;;-5.69;100.00
16834;BME280;8533;48.426;10.868;2022-12-18T08:26:51;97479.50;;;-5.62;100.00
16834;BME280;8533;48.426;10.868;2022-12-18T08:29:20;97474.39;;;-5.67;100.00
16834;BME280;8533;48.426;10.868;2022-12-18T08:31:48;97473.45;;;-5.66;100.00
16834;BME280;8533;48.426;10.868;2022-12-18T08:34:15;97468.39;;;-5.61;100.00
16834;BME280;8533;48.426;10.868;2022-12-18T08:36:42;97472.32;;;-5.57;100.00
16834;BME280;8533;48.426;10.868;2022-12-18T08:39:10;97472.22;;;-5.50;100.00
16834;BME280;8533;48.426;10.868;2022-12-18T08:41:37;97469.81;;;-5.46;100.00
16834;BME280;8533;48.426;10.868;2022-12-18T08:44:08;97465.42;;;-5.38;100.00
16834;BME280;8533;48.426;10.868;2022-12-18T08:46:53;97466.70;;;-5.32;100.00
16834;BME280;8533;48.426;10.868;2022-12-18T08:49:21;97466.12;;;-5.36;100.00
16834;BME280;8533;48.426;10.868;2022-12-18T08:51:48;97451.05;;;-5.39;100.00
16834;BME280;8533;48.426;10.868;2022-12-18T08:54:17;97453.84;;;-5.36;100.00
16834;BME280;8533;48.426;10.868;2022-12-18T08:56:44;97453.25;;;-5.40;100.00
16834;BME280;8533;48.426;10.868;2022-12-18T08:59:12;97457.80;;;-5.27;100.00
16834;BME280;8533;48.426;10.868;2022-12-18T09:01:39;97457.91;;;-5.23;100.00
16834;BME280;8533;48.426;10.868;2022-12-18T09:04:13;97452.24;;;-5.21;100.00
16834;BME280;8533;48.426;10.868;2022-12-18T09:06:37;97456.63;;;-5.23;100.00
16834;BME280;8533;48.426;10.868;2022-12-18T09:09:05;97461.52;;;-5.14;100.00
16834;BME280;8533;48.426;10.868;2022-12-18T09:11:33;97465.94;;;-5.11;100.00
16834;BME280;8533;48.426;10.868;2022-12-18T09:14:01;97463.70;;;-5.10;100.00
16834;BME280;8533;48.426;10.868;2022-12-18T09:16:30;97462.44;;;-5.15;100.00
16834;BME280;8533;48.426;10.868;2022-12-18T09:18:58;97465.80;;;-5.15;100.00
16834;BME280;8533;48.426;10.868;2022-12-18T09:21:28;97466.83;;;-5.17;100.00
16834;BME280;8533;48.426;10.868;2022-12-18T09:23:56;97467.53;;;-5.10;100.00
16834;BME280;8533;48.426;10.868;2022-12-18T09:26:24;97467.75;;;-5.29;100.00
16834;BME280;8533;48.426;10.868;2022-12-18T09:28:53;97470.37;;;-5.42;100.00
16834;BME280;8533;48.426;10.868;2022-12-18T09:31:22;97468.68;;;-5.36;100.00
16834;BME280;8533;48.426;10.868;2022-12-18T09:33:51;97462.41;;;-5.26;100.00
16834;BME280;8533;48.426;10.868;2022-12-18T09:36:18;97459.53;;;-5.16;100.00
16834;BME280;8533;48.426;10.868;2022-12-18T09:38:46;97457.23;;;-5.14;100.00
16834;BME280;8533;48.426;10.868;2022-12-18T09:41:41;97460.59;;;-5.13;100.00
16834;BME280;8533;48.426;10.868;2022-12-18T09:44:18;97461.52;;;-5.20;100.00
16834;BME280;8533;48.426;10.868;2022-12-18T09:49:26;97458.83;;;-5.29;100.00
16834;BME280;8533;48.426;10.868;2022-12-18T09:52:07;97452.23;;;-5.10;100.00
16834;BME280;8533;48.426;10.868;2022-12-18T09:57:03;97451.31;;;-5.20;100.00
16834;BME280;8533;48.426;10.868;2022-12-18T09:59:35;97456.66;;;-5.12;100.00
16834;BME280;8533;48.426;10.868;2022-12-18T10:02:23;97453.50;;;-5.10;100.00
16834;BME280;8533;48.426;10.868;2022-12-18T10:04:36;97450.14;;;-5.16;100.00
16834;BME280;8533;48.426;10.868;2022-12-18T10:12:23;97437.16;;;-5.29;100.00
16834;BME280;8533;48.426;10.868;2022-12-18T10:20:21;97435.31;;;-5.16;100.00
16834;BME280;8533;48.426;10.868;2022-12-18T10:25:53;97432.43;;;-5.12;100.00
16834;BME280;8533;48.426;10.868;2022-12-18T10:28:23;97436.02;;;-5.14;100.00
16834;BME280;8533;48.426;10.868;2022-12-18T10:30:51;97430.20;;;-5.16;100.00
16834;BME280;8533;48.426;10.868;2022-12-18T10:33:22;97431.84;;;-5.21;100.00
16834;BME280;8533;48.426;10.868;2022-12-18T10:35:51;97428.25;;;-5.07;100.00
16834;BME280;8533;48.426;10.868;2022-12-18T10:38:26;97440.87;;;-5.22;100.00
16834;BME280;8533;48.426;10.868;2022-12-18T10:40:58;97444.34;;;-5.18;100.00
16834;BME280;8533;48.426;10.868;2022-12-18T10:43:28;97447.27;;;-5.06;100.00
16834;BME280;8533;48.426;10.868;2022-12-18T10:48:37;97453.50;;;-5.10;100.00
16834;BME280;8533;48.426;10.868;2022-12-18T10:51:07;97454.55;;;-5.01;100.00
16834;BME280;8533;48.426;10.868;2022-12-18T10:53:36;97453.18;;;-5.11;100.00
16834;BME280;8533;48.426;10.868;2022-12-18T10:56:05;97370.64;;;-5.54;100.00
16834;BME280;8533;48.426;10.868;2022-12-18T10:58:36;97455.16;;;-5.03;100.00
16834;BME280;8533;48.426;10.868;2022-12-18T11:01:16;97452.82;;;-5.06;100.00
16834;BME280;8533;48.426;10.868;2022-12-18T11:03:46;97448.06;;;-4.94;100.00
16834;BME280;8533;48.426;10.868;2022-12-18T11:06:16;97445.52;;;-5.00;100.00
16834;BME280;8533;48.426;10.868;2022-12-18T11:09:19;97454.67;;;-5.08;100.00
16834;BME280;8533;48.426;10.868;2022-12-18T11:11:22;97443.20;;;-5.08;100.00
16834;BME280;8533;48.426;10.868;2022-12-18T11:16:33;97440.31;;;-5.04;100.00
16834;BME280;8533;48.426;10.868;2022-12-18T11:19:12;97439.14;;;-5.00;100.00
16834;BME280;8533;48.426;10.868;2022-12-18T11:21:40;97438.44;;;-5.02;100.00
16834;BME280;8533;48.426;10.868;2022-12-18T11:24:20;97437.85;;;-4.94;100.00
16834;BME280;8533;48.426;10.868;2022-12-18T11:26:47;97438.56;;;-4.97;100.00
16834;BME280;8533;48.426;10.868;2022-12-18T11:29:22;97435.80;;;-4.94;100.00
16834;BME280;8533;48.426;10.868;2022-12-18T11:31:47;97428.25;;;-4.79;100.00
16834;BME280;8533;48.426;10.868;2022-12-18T11:34:29;97422.66;;;-4.84;100.00
16834;BME280;8533;48.426;10.868;2022-12-18T11:36:59;97423.36;;;-4.71;100.00
16834;BME280;8533;48.426;10.868;2022-12-18T11:39:40;97426.25;;;-4.65;100.00
16834;BME280;8533;48.426;10.868;2022-12-18T11:42:14;97424.75;;;-4.73;100.00
16834;BME280;8533;48.426;10.868;2022-12-18T11:44:57;97427.98;;;-4.65;100.00
16834;BME280;8533;48.426;10.868;2022-12-18T11:47:44;97426.27;;;-4.70;100.00
16834;BME280;8533;48.426;10.868;2022-12-18T11:50:19;97421.36;;;-4.56;100.00
16834;BME280;8533;48.426;10.868;2022-12-18T11:52:44;97413.80;;;-4.47;100.00
16834;BME280;8533;48.426;10.868;2022-12-18T11:55:14;97404.55;;;-4.65;100.00
16834;BME280;8533;48.426;10.868;2022-12-18T12:00:21;97417.48;;;-4.45;100.00
16834;BME280;8533;48.426;10.868;2022-12-18T12:05:47;97411.34;;;-4.43;100.00
16834;BME280;8533;48.426;10.868;2022-12-18T12:08:36;97406.70;;;-4.38;100.00
16834;BME280;8533;48.426;10.868;2022-12-18T12:11:22;97397.18;;;-4.41;100.00
16834;BME280;8533;48.426;10.868;2022-12-18T12:22:28;97412.27;;;-4.38;100.00
16834;BME280;8533;48.426;10.868;2022-12-18T12:31:05;97404.47;;;-4.37;100.00
16834;BME280;8533;48.426;10.868;2022-12-18T12:33:36;97409.23;;;-4.32;100.00
16834;BME280;8533;48.426;10.868;2022-12-18T12:38:47;97394.61;;;-4.30;100.00
16834;BME280;8533;48.426;10.868;2022-12-18T12:41:14;97391.23;;;-4.36;100.00
16834;BME280;8533;48.426;10.868;2022-12-18T12:44:03;97392.86;;;-4.35;100.00
16834;BME280;8533;48.426;10.868;2022-12-18T12:46:34;97388.57;;;-4.35;100.00
16834;BME280;8533;48.426;10.868;2022-12-18T12:49:03;97379.28;;;-4.36;100.00
16834;BME280;8533;48.426;10.868;2022-12-18T12:51:38;97377.72;;;-4.48;100.00
16834;BME280;8533;48.426;10.868;2022-12-18T12:54:18;97382.35;;;-4.53;100.00
16834;BME280;8533;48.426;10.868;2022-12-18T12:59:27;97372.23;;;-4.38;100.00
16834;BME280;8533;48.426;10.868;2022-12-18T13:01:54;97367.36;;;-4.41;100.00
16834;BME280;8533;48.426;10.868;2022-12-18T13:07:01;97367.16;;;-4.49;100.00
16834;BME280;8533;48.426;10.868;2022-12-18T13:09:32;97381.13;;;-4.64;100.00
16834;BME280;8533;48.426;10.868;2022-12-18T13:12:09;97375.80;;;-4.78;100.00
16834;BME280;8533;48.426;10.868;2022-12-18T13:14:52;97375.02;;;-4.78;100.00
16834;BME280;8533;48.426;10.868;2022-12-18T13:17:27;97382.22;;;-4.89;100.00
16834;BME280;8533;48.426;10.868;2022-12-18T13:20:05;97375.05;;;-4.95;100.00
16834;BME280;8533;48.426;10.868;2022-12-18T13:22:38;97379.68;;;-4.94;100.00
16834;BME280;8533;48.426;10.868;2022-12-18T13:25:28;97381.18;;;-4.97;100.00
16834;BME280;8533;48.426;10.868;2022-12-18T13:40:57;97389.42;;;-5.22;100.00
16834;BME280;8533;48.426;10.868;2022-12-18T13:43:34;97389.19;;;-5.30;100.00
16834;BME280;8533;48.426;10.868;2022-12-18T13:48:36;97390.93;;;-5.30;100.00
16834;BME280;8533;48.426;10.868;2022-12-18T13:51:09;97394.38;;;-5.43;100.00
16834;BME280;8533;48.426;10.868;2022-12-18T13:53:47;97391.27;;;-5.41;100.00
16834;BME280;8533;48.426;10.868;2022-12-18T13:56:16;97397.42;;;-5.43;100.00
16834;BME280;8533;48.426;10.868;2022-12-18T13:58:44;97391.27;;;-5.46;100.00
16834;BME280;8533;48.426;10.868;2022-12-18T14:01:24;97387.70;;;-5.27;100.00
16834;BME280;8533;48.426;10.868;2022-12-18T14:03:51;97381.55;;;-5.35;100.00
16834;BME280;8533;48.426;10.868;2022-12-18T14:06:20;97381.66;;;-5.37;100.00
16834;BME280;8533;48.426;10.868;2022-12-18T14:08:48;97389.17;;;-5.41;100.00
16834;BME280;8533;48.426;10.868;2022-12-18T14:11:22;97385.35;;;-5.41;100.00
16834;BME280;8533;48.426;10.868;2022-12-18T14:13:50;97382.94;;;-5.37;100.00
16834;BME280;8533;48.426;10.868;2022-12-18T14:16:18;97385.81;;;-5.42;100.00
16834;BME280;8533;48.426;10.868;2022-12-18T14:18:56;97387.81;;;-5.28;100.00
16834;BME280;8533;48.426;10.868;2022-12-18T14:21:26;97386.99;;;-5.29;100.00
16834;BME280;8533;48.426;10.868;2022-12-18T14:24:20;97387.66;;;-5.49;100.00
16834;BME280;8533;48.426;10.868;2022-12-18T14:26:49;97389.99;;;-5.46;100.00
16834;BME280;8533;48.426;10.868;2022-12-18T14:29:30;97389.86;;;-5.50;100.00